sensor_id;sensor_type;location;lat;lon;timestamp;pressure;altitude;pressure_sealevel;temperature;humidity
46614;BME280;32338;50.430;6.806;2023-01-25T00:00:04;65156.94;;;-2.47;100.00
46614;BME280;32338;50.430;6.806;2023-01-25T00:02:31;65145.03;;;-2.61;100.00
46614;BME280;32338;50.430;6.806;2023-01-25T00:04:58;65142.47;;;-2.61;100.00
46614;BME280;32338;50.430;6.806;2023-01-25T00:07:24;65147.38;;;-2.51;100.00
46614;BME280;32338;50.430;6.806;2023-01-25T00:09:51;65157.50;;;-2.47;100.00
46614;BME280;32338;50.430;6.806;2023-01-25T00:12:18;65155.28;;;-2.49;100.00
46614;BME280;32338;50.430;6.806;2023-01-25T00:14:46;65160.94;;;-2.36;100.00
46614;BME280;32338;50.430;6.806;2023-01-25T00:17:12;65172.97;;;-2.28;100.00
46614;BME280;32338;50.430;6.806;2023-01-25T00:19:39;65178.31;;;-2.25;100.00
46614;BME280;32338;50.430;6.806;2023-01-25T00:22:05;65181.88;;;-2.19;100.00
46614;BME280;32338;50.430;6.806;2023-01-25T00:24:32;65172.97;;;-2.28;100.00
46614;BME280;32338;50.430;6.806;2023-01-25T00:26:58;65165.50;;;-2.37;100.00
46614;BME280;32338;50.430;6.806;2023-01-25T00:29:25;65159.03;;;-2.40;100.00
46614;BME280;32338;50.430;6.806;2023-01-25T00:32:07;65161.97;;;-2.42;100.00
46614;BME280;32338;50.430;6.806;2023-01-25T00:34:53;65155.16;;;-2.44;100.00
46614;BME280;32338;50.430;6.806;2023-01-25T00:37:27;65158.81;;;-2.43;100.00
46614;BME280;32338;50.430;6.806;2023-01-25T00:39:54;65150.38;;;-2.46;100.00
46614;BME280;32338;50.430;6.806;2023-01-25T00:42:20;65163.63;;;-2.41;100.00
46614;BME280;32338;50.430;6.806;2023-01-25T00:44:47;65167.19;;;-2.35;100.00
46614;BME280;32338;50.430;6.806;2023-01-25T00:47:16;65156.25;;;-2.43;100.00
46614;BME280;32338;50.430;6.806;2023-01-25T00:49:44;65147.91;;;-2.51;100.00
46614;BME280;32338;50.430;6.806;2023-01-25T00:52:11;65161.97;;;-2.42;100.00
46614;BME280;32338;50.430;6.806;2023-01-25T00:54:38;65140.59;;;-2.65;100.00
46614;BME280;32338;50.430;6.806;2023-01-25T00:57:05;65143.03;;;-2.60;100.00
46614;BME280;32338;50.430;6.806;2023-01-25T00:59:32;65127.31;;;-2.70;100.00
46614;BME280;32338;50.430;6.806;2023-01-25T01:01:59;65125.44;;;-2.74;100.00
46614;BME280;32338;50.430;6.806;2023-01-25T01:04:27;65134.78;;;-2.61;100.00
46614;BME280;32338;50.430;6.806;2023-01-25T01:06:55;65131.34;;;-2.71;100.00
46614;BME280;32338;50.430;6.806;2023-01-25T01:09:22;65121.19;;;-2.75;100.00
46614;BME280;32338;50.430;6.806;2023-01-25T01:11:49;65131.34;;;-2.71;100.00
46614;BME280;32338;50.430;6.806;2023-01-25T01:14:16;65137.69;;;-2.63;100.00
46614;BME280;32338;50.430;6.806;2023-01-25T01:16:42;65144.91;;;-2.56;100.00
46614;BME280;32338;50.430;6.806;2023-01-25T01:19:09;65153.63;;;-2.50;100.00
46614;BME280;32338;50.430;6.806;2023-01-25T01:21:37;65142.34;;;-2.56;100.00
46614;BME280;32338;50.430;6.806;2023-01-25T01:24:04;65119.53;;;-2.77;100.00
46614;BME280;32338;50.430;6.806;2023-01-25T01:26:31;65121.19;;;-2.75;100.00
46614;BME280;32338;50.430;6.806;2023-01-25T01:28:58;65130.22;;;-2.72;100.00
46614;BME280;32338;50.430;6.806;2023-01-25T01:31:25;65123.00;;;-2.79;100.00
46614;BME280;32338;50.430;6.806;2023-01-25T01:33:53;65115.75;;;-2.85;100.00
46614;BME280;32338;50.430;6.806;2023-01-25T01:36:22;65108.41;;;-2.87;100.00
46614;BME280;32338;50.430;6.806;2023-01-25T01:38:50;65121.75;;;-2.75;100.00
46614;BME280;32338;50.430;6.806;2023-01-25T01:41:17;65134.34;;;-2.66;100.00
46614;BME280;32338;50.430;6.806;2023-01-25T01:43:44;65135.13;;;-2.63;100.00
46614;BME280;32338;50.430;6.806;2023-01-25T01:46:14;65137.69;;;-2.63;100.00
46614;BME280;32338;50.430;6.806;2023-01-25T01:48:45;65124.53;;;-2.72;100.00
46614;BME280;32338;50.430;6.806;2023-01-25T01:51:19;65129.66;;;-2.72;100.00
46614;BME280;32338;50.430;6.806;2023-01-25T01:53:52;65120.44;;;-2.79;100.00
46614;BME280;32338;50.430;6.806;2023-01-25T01:56:22;65125.78;;;-2.76;100.00
46614;BME280;32338;50.430;6.806;2023-01-25T01:58:53;65132.44;;;-2.70;100.00
46614;BME280;32338;50.430;6.806;2023-01-25T02:01:21;65124.53;;;-2.72;100.00
46614;BME280;32338;50.430;6.806;2023-01-25T02:03:48;65153.63;;;-2.50;100.00
46614;BME280;32338;50.430;6.806;2023-01-25T02:06:24;65161.28;;;-2.38;100.00
46614;BME280;32338;50.430;6.806;2023-01-25T02:08:54;65149.03;;;-2.50;100.00
46614;BME280;32338;50.430;6.806;2023-01-25T02:11:21;65144.00;;;-2.54;100.00
46614;BME280;32338;50.430;6.806;2023-01-25T02:13:50;65148.13;;;-2.48;100.00
46614;BME280;32338;50.430;6.806;2023-01-25T02:16:21;65157.16;;;-2.45;100.00
46614;BME280;32338;50.430;6.806;2023-01-25T02:18:50;65159.59;;;-2.40;100.00
46614;BME280;32338;50.430;6.806;2023-01-25T02:21:17;65153.84;;;-2.48;100.00
46614;BME280;32338;50.430;6.806;2023-01-25T02:23:47;65141.69;;;-2.64;100.00
46614;BME280;32338;50.430;6.806;2023-01-25T02:26:17;65135.66;;;-2.62;100.00
46614;BME280;32338;50.430;6.806;2023-01-25T02:28:47;65146.25;;;-2.52;100.00
46614;BME280;32338;50.430;6.806;2023-01-25T02:31:15;65131.78;;;-2.66;100.00
46614;BME280;32338;50.430;6.806;2023-01-25T02:33:43;65145.13;;;-2.53;100.00
46614;BME280;32338;50.430;6.806;2023-01-25T02:36:17;65144.00;;;-2.54;100.00
46614;BME280;32338;50.430;6.806;2023-01-25T02:38:48;65131.91;;;-2.70;100.00
46614;BME280;32338;50.430;6.806;2023-01-25T02:41:22;65117.75;;;-2.86;100.00
46614;BME280;32338;50.430;6.806;2023-01-25T02:43:50;65098.94;;;-2.96;100.00
46614;BME280;32338;50.430;6.806;2023-01-25T02:46:21;65108.19;;;-2.90;100.00
46614;BME280;32338;50.430;6.806;2023-01-25T02:48:50;65107.28;;;-2.88;100.00
46614;BME280;32338;50.430;6.806;2023-01-25T02:51:17;65139.34;;;-2.61;100.00
46614;BME280;32338;50.430;6.806;2023-01-25T02:53:44;65140.69;;;-2.57;100.00
46614;BME280;32338;50.430;6.806;2023-01-25T02:56:10;65146.56;;;-2.54;100.00
46614;BME280;32338;50.430;6.806;2023-01-25T02:58:38;65133.22;;;-2.67;100.00
46614;BME280;32338;50.430;6.806;2023-01-25T03:01:05;65134.44;;;-2.58;100.00
46614;BME280;32338;50.430;6.806;2023-01-25T03:03:31;65154.16;;;-2.50;100.00
46614;BME280;32338;50.430;6.806;2023-01-25T03:05:58;65150.69;;;-2.48;100.00
46614;BME280;32338;50.430;6.806;2023-01-25T03:08:25;65147.91;;;-2.51;100.00
46614;BME280;32338;50.430;6.806;2023-01-25T03:10:55;65146.56;;;-2.54;100.00
46614;BME280;32338;50.430;6.806;2023-01-25T03:13:22;65168.66;;;-2.36;100.00
46614;BME280;32338;50.430;6.806;2023-01-25T03:15:50;65158.28;;;-2.43;100.00
46614;BME280;32338;50.430;6.806;2023-01-25T03:18:16;65161.28;;;-2.38;100.00
46614;BME280;32338;50.430;6.806;2023-01-25T03:20:43;65159.03;;;-2.40;100.00
46614;BME280;32338;50.430;6.806;2023-01-25T03:23:09;65160.16;;;-2.39;100.00
46614;BME280;32338;50.430;6.806;2023-01-25T03:25:36;65164.75;;;-2.40;100.00
46614;BME280;32338;50.430;6.806;2023-01-25T03:28:03;65153.84;;;-2.48;100.00
46614;BME280;32338;50.430;6.806;2023-01-25T03:30:29;65147.91;;;-2.51;100.00
46614;BME280;32338;50.430;6.806;2023-01-25T03:32:57;65137.34;;;-2.61;100.00
46614;BME280;32338;50.430;6.806;2023-01-25T03:35:24;65125.66;;;-2.71;100.00
46614;BME280;32338;50.430;6.806;2023-01-25T03:37:50;65126.78;;;-2.70;100.00
46614;BME280;32338;50.430;6.806;2023-01-25T03:40:17;65129.34;;;-2.70;100.00
46614;BME280;32338;50.430;6.806;2023-01-25T03:42:44;65119.53;;;-2.77;100.00
46614;BME280;32338;50.430;6.806;2023-01-25T03:45:10;65123.22;;;-2.76;100.00
46614;BME280;32338;50.430;6.806;2023-01-25T03:47:38;65126.31;;;-2.75;100.00
46614;BME280;32338;50.430;6.806;2023-01-25T03:50:08;65144.69;;;-2.58;100.00
46614;BME280;32338;50.430;6.806;2023-01-25T03:52:34;65141.22;;;-2.57;100.00
46614;BME280;32338;50.430;6.806;2023-01-25T03:55:06;65136.03;;;-2.64;100.00
46614;BME280;32338;50.430;6.806;2023-01-25T03:57:32;65131.78;;;-2.66;100.00
46614;BME280;32338;50.430;6.806;2023-01-25T03:59:59;65116.31;;;-2.85;100.00
46614;BME280;32338;50.430;6.806;2023-01-25T04:02:26;65109.31;;;-2.89;100.00
46614;BME280;32338;50.430;6.806;2023-01-25T04:04:52;65103.53;;;-2.97;100.00
46614;BME280;32338;50.430;6.806;2023-01-25T04:07:20;65099.06;;;-3.01;100.00
46614;BME280;32338;50.430;6.806;2023-01-25T04:09:47;65094.28;;;-3.03;100.00
46614;BME280;32338;50.430;6.806;2023-01-25T04:12:14;65093.94;;;-3.01;100.00
46614;BME280;32338;50.430;6.806;2023-01-25T04:14:41;65114.28;;;-2.84;100.00
46614;BME280;32338;50.430;6.806;2023-01-25T04:17:07;65112.41;;;-2.88;100.00
46614;BME280;32338;50.430;6.806;2023-01-25T04:19:35;65103.38;;;-2.92;100.00
46614;BME280;32338;50.430;6.806;2023-01-25T04:22:01;65080.03;;;-3.14;100.00
46614;BME280;32338;50.430;6.806;2023-01-25T04:24:29;65083.50;;;-3.15;100.00
46614;BME280;32338;50.430;6.806;2023-01-25T04:26:56;65076.13;;;-3.17;100.00
46614;BME280;32338;50.430;6.806;2023-01-25T04:29:22;65072.59;;;-3.23;100.00
46614;BME280;32338;50.430;6.806;2023-01-25T04:31:49;65073.13;;;-3.22;100.00
46614;BME280;32338;50.430;6.806;2023-01-25T04:34:15;65070.91;;;-3.24;100.00
46614;BME280;32338;50.430;6.806;2023-01-25T04:36:42;65064.56;;;-3.33;100.00
46614;BME280;32338;50.430;6.806;2023-01-25T04:39:08;65057.34;;;-3.39;100.00
46614;BME280;32338;50.430;6.806;2023-01-25T04:41:36;65045.31;;;-3.48;100.00
46614;BME280;32338;50.430;6.806;2023-01-25T04:44:03;65041.66;;;-3.49;100.00
46614;BME280;32338;50.430;6.806;2023-01-25T04:46:30;65059.03;;;-3.38;100.00
46614;BME280;32338;50.430;6.806;2023-01-25T04:48:56;65065.56;;;-3.27;100.00
46614;BME280;32338;50.430;6.806;2023-01-25T04:51:23;65067.78;;;-3.25;100.00
46614;BME280;32338;50.430;6.806;2023-01-25T04:53:49;65085.03;;;-3.09;100.00
46614;BME280;32338;50.430;6.806;2023-01-25T04:56:16;65091.16;;;-3.03;100.00
46614;BME280;32338;50.430;6.806;2023-01-25T04:58:44;65086.72;;;-3.07;100.00
46614;BME280;32338;50.430;6.806;2023-01-25T05:01:11;65094.06;;;-3.05;100.00
46614;BME280;32338;50.430;6.806;2023-01-25T05:03:37;65067.22;;;-3.26;100.00
46614;BME280;32338;50.430;6.806;2023-01-25T05:06:04;65071.81;;;-3.26;100.00
46614;BME280;32338;50.430;6.806;2023-01-25T05:08:31;65069.25;;;-3.26;100.00
46614;BME280;32338;50.430;6.806;2023-01-25T05:10:57;65062.78;;;-3.30;100.00
46614;BME280;32338;50.430;6.806;2023-01-25T05:13:24;65057.91;;;-3.39;100.00
46614;BME280;32338;50.430;6.806;2023-01-25T05:15:54;65068.69;;;-3.27;100.00
46614;BME280;32338;50.430;6.806;2023-01-25T05:18:21;65070.03;;;-3.23;100.00
46614;BME280;32338;50.430;6.806;2023-01-25T05:20:53;65055.56;;;-3.36;100.00
46614;BME280;32338;50.430;6.806;2023-01-25T05:23:19;65048.88;;;-3.43;100.00
46614;BME280;32338;50.430;6.806;2023-01-25T05:25:46;65045.88;;;-3.48;100.00
46614;BME280;32338;50.430;6.806;2023-01-25T05:28:30;65051.13;;;-3.40;100.00
46614;BME280;32338;50.430;6.806;2023-01-25T05:30:58;65071.47;;;-3.24;100.00
46614;BME280;32338;50.430;6.806;2023-01-25T05:33:24;65071.34;;;-3.19;100.00
46614;BME280;32338;50.430;6.806;2023-01-25T05:35:51;65078.38;;;-3.15;100.00
46614;BME280;32338;50.430;6.806;2023-01-25T05:38:18;65093.16;;;-3.04;100.00
46614;BME280;32338;50.430;6.806;2023-01-25T05:40:44;65115.19;;;-2.86;100.00
46614;BME280;32338;50.430;6.806;2023-01-25T05:43:11;65100.97;;;-2.97;100.00
46614;BME280;32338;50.430;6.806;2023-01-25T05:45:37;65107.63;;;-2.90;100.00
46614;BME280;32338;50.430;6.806;2023-01-25T05:48:06;65105.41;;;-2.92;100.00
46614;BME280;32338;50.430;6.806;2023-01-25T05:50:32;65108.06;;;-2.85;100.00
46614;BME280;32338;50.430;6.806;2023-01-25T05:52:59;65131.22;;;-2.66;100.00
46614;BME280;32338;50.430;6.806;2023-01-25T05:55:25;65125.09;;;-2.72;100.00
46614;BME280;32338;50.430;6.806;2023-01-25T05:57:54;65131.00;;;-2.69;100.00
46614;BME280;32338;50.430;6.806;2023-01-25T06:00:21;65120.44;;;-2.79;100.00
46614;BME280;32338;50.430;6.806;2023-01-25T06:02:48;65102.84;;;-2.92;100.00
46614;BME280;32338;50.430;6.806;2023-01-25T06:05:16;65115.19;;;-2.86;100.00
46614;BME280;32338;50.430;6.806;2023-01-25T06:07:42;65125.09;;;-2.72;100.00
46614;BME280;32338;50.430;6.806;2023-01-25T06:10:09;65129.88;;;-2.70;100.00
46614;BME280;32338;50.430;6.806;2023-01-25T06:12:36;65123.53;;;-2.78;100.00
46614;BME280;32338;50.430;6.806;2023-01-25T06:15:04;65101.72;;;-2.94;100.00
46614;BME280;32338;50.430;6.806;2023-01-25T06:17:31;65084.25;;;-3.12;100.00
46614;BME280;32338;50.430;6.806;2023-01-25T06:19:57;65061.66;;;-3.31;100.00
46614;BME280;32338;50.430;6.806;2023-01-25T06:22:25;65060.56;;;-3.32;100.00
46614;BME280;32338;50.430;6.806;2023-01-25T06:24:52;65068.69;;;-3.27;100.00
46614;BME280;32338;50.430;6.806;2023-01-25T06:27:18;65080.25;;;-3.11;100.00
46614;BME280;32338;50.430;6.806;2023-01-25T06:29:45;65079.47;;;-3.14;100.00
46614;BME280;32338;50.430;6.806;2023-01-25T06:32:11;65083.34;;;-3.11;100.00
46614;BME280;32338;50.430;6.806;2023-01-25T06:34:38;65090.59;;;-3.04;100.00
46614;BME280;32338;50.430;6.806;2023-01-25T06:37:05;65083.94;;;-3.10;100.00
46614;BME280;32338;50.430;6.806;2023-01-25T06:39:33;65095.03;;;-3.00;100.00
46614;BME280;32338;50.430;6.806;2023-01-25T06:41:59;65095.72;;;-3.04;100.00
46614;BME280;32338;50.430;6.806;2023-01-25T06:44:26;65082.81;;;-3.11;100.00
46614;BME280;32338;50.430;6.806;2023-01-25T06:46:54;65112.88;;;-2.95;100.00
46614;BME280;32338;50.430;6.806;2023-01-25T06:49:22;65098.41;;;-2.97;100.00
46614;BME280;32338;50.430;6.806;2023-01-25T06:51:48;65096.50;;;-3.01;100.00
46614;BME280;32338;50.430;6.806;2023-01-25T06:54:15;65105.63;;;-2.90;100.00
46614;BME280;32338;50.430;6.806;2023-01-25T06:56:43;65107.84;;;-2.88;100.00
46614;BME280;32338;50.430;6.806;2023-01-25T06:59:09;65090.94;;;-3.06;100.00
46614;BME280;32338;50.430;6.806;2023-01-25T07:01:36;65070.91;;;-3.24;100.00
46614;BME280;32338;50.430;6.806;2023-01-25T07:04:03;65065.91;;;-3.29;100.00
46614;BME280;32338;50.430;6.806;2023-01-25T07:06:31;65062.22;;;-3.30;100.00
46614;BME280;32338;50.430;6.806;2023-01-25T07:09:01;65053.31;;;-3.38;100.00
46614;BME280;32338;50.430;6.806;2023-01-25T07:11:28;65061.66;;;-3.31;100.00
46614;BME280;32338;50.430;6.806;2023-01-25T07:13:57;65074.47;;;-3.19;100.00
46614;BME280;32338;50.430;6.806;2023-01-25T07:16:25;65095.72;;;-3.04;100.00
46614;BME280;32338;50.430;6.806;2023-01-25T07:18:51;65090.03;;;-3.04;100.00
46614;BME280;32338;50.430;6.806;2023-01-25T07:21:19;65093.72;;;-3.03;100.00
46614;BME280;32338;50.430;6.806;2023-01-25T07:23:47;65096.50;;;-3.01;100.00
46614;BME280;32338;50.430;6.806;2023-01-25T07:26:16;65087.25;;;-3.07;100.00
46614;BME280;32338;50.430;6.806;2023-01-25T07:28:43;65095.72;;;-3.04;100.00
46614;BME280;32338;50.430;6.806;2023-01-25T07:31:11;65100.06;;;-2.95;100.00
46614;BME280;32338;50.430;6.806;2023-01-25T07:33:38;65101.28;;;-2.99;100.00
46614;BME280;32338;50.430;6.806;2023-01-25T07:36:07;65108.94;;;-2.87;100.00
46614;BME280;32338;50.430;6.806;2023-01-25T07:38:34;65095.72;;;-3.04;100.00
46614;BME280;32338;50.430;6.806;2023-01-25T07:41:01;65089.06;;;-3.10;100.00
46614;BME280;32338;50.430;6.806;2023-01-25T07:43:28;65107.75;;;-2.95;100.00
46614;BME280;32338;50.430;6.806;2023-01-25T07:45:59;65111.50;;;-2.87;100.00
46614;BME280;32338;50.430;6.806;2023-01-25T07:48:27;65118.19;;;-2.81;100.00
46614;BME280;32338;50.430;6.806;2023-01-25T07:50:57;65115.41;;;-2.83;100.00
46614;BME280;32338;50.430;6.806;2023-01-25T07:53:52;65109.84;;;-2.88;100.00
46614;BME280;32338;50.430;6.806;2023-01-25T07:56:20;65095.59;;;-2.99;100.00
46614;BME280;32338;50.430;6.806;2023-01-25T07:58:47;65076.69;;;-3.17;100.00
46614;BME280;32338;50.430;6.806;2023-01-25T08:01:15;65077.59;;;-3.18;100.00
46614;BME280;32338;50.430;6.806;2023-01-25T08:03:42;65079.03;;;-3.19;100.00
46614;BME280;32338;50.430;6.806;2023-01-25T08:06:09;65068.13;;;-3.27;100.00
46614;BME280;32338;50.430;6.806;2023-01-25T08:08:39;65053.00;;;-3.36;100.00
46614;BME280;32338;50.430;6.806;2023-01-25T08:11:10;65045.09;;;-3.51;100.00
46614;BME280;32338;50.430;6.806;2023-01-25T08:13:38;65028.66;;;-3.64;100.00
46614;BME280;32338;50.430;6.806;2023-01-25T08:16:05;65035.66;;;-3.60;100.00
46614;BME280;32338;50.430;6.806;2023-01-25T08:18:32;65043.44;;;-3.52;100.00
46614;BME280;32338;50.430;6.806;2023-01-25T08:20:59;65045.41;;;-3.41;100.00
46614;BME280;32338;50.430;6.806;2023-01-25T08:23:26;65062.34;;;-3.35;100.00
46614;BME280;32338;50.430;6.806;2023-01-25T08:25:53;65062.34;;;-3.35;100.00
46614;BME280;32338;50.430;6.806;2023-01-25T08:28:22;65061.34;;;-3.29;100.00
46614;BME280;32338;50.430;6.806;2023-01-25T08:30:48;65065.69;;;-3.32;100.00
46614;BME280;32338;50.430;6.806;2023-01-25T08:33:15;65068.56;;;-3.22;100.00
46614;BME280;32338;50.430;6.806;2023-01-25T08:35:41;65065.00;;;-3.28;100.00
46614;BME280;32338;50.430;6.806;2023-01-25T08:38:08;65064.22;;;-3.31;100.00
46614;BME280;32338;50.430;6.806;2023-01-25T08:40:34;65084.25;;;-3.12;100.00
46614;BME280;32338;50.430;6.806;2023-01-25T08:43:01;65082.59;;;-3.14;100.00
46614;BME280;32338;50.430;6.806;2023-01-25T08:45:29;65093.94;;;-3.01;100.00
46614;BME280;32338;50.430;6.806;2023-01-25T08:47:58;65103.53;;;-2.97;100.00
46614;BME280;32338;50.430;6.806;2023-01-25T08:50:25;65098.72;;;-2.99;100.00
46614;BME280;32338;50.430;6.806;2023-01-25T08:52:52;65106.75;;;-2.89;100.00
46614;BME280;32338;50.430;6.806;2023-01-25T08:55:18;65087.59;;;-3.09;100.00
46614;BME280;32338;50.430;6.806;2023-01-25T08:57:45;65091.72;;;-3.03;100.00
46614;BME280;32338;50.430;6.806;2023-01-25T09:00:13;65098.16;;;-2.99;100.00
46614;BME280;32338;50.430;6.806;2023-01-25T09:02:41;65077.59;;;-3.18;100.00
46614;BME280;32338;50.430;6.806;2023-01-25T09:05:08;65063.34;;;-3.29;100.00
46614;BME280;32338;50.430;6.806;2023-01-25T09:07:35;65056.69;;;-3.35;100.00
46614;BME280;32338;50.430;6.806;2023-01-25T09:10:04;65047.00;;;-3.47;100.00
46614;BME280;32338;50.430;6.806;2023-01-25T09:12:33;65075.69;;;-3.22;100.00
46614;BME280;32338;50.430;6.806;2023-01-25T09:14:59;65078.38;;;-3.15;100.00
46614;BME280;32338;50.430;6.806;2023-01-25T09:17:26;65098.28;;;-3.04;100.00
46614;BME280;32338;50.430;6.806;2023-01-25T09:19:54;65101.72;;;-2.94;100.00
46614;BME280;32338;50.430;6.806;2023-01-25T09:22:20;65114.66;;;-2.86;100.00
46614;BME280;32338;50.430;6.806;2023-01-25T09:24:47;65122.88;;;-2.74;100.00
46614;BME280;32338;50.430;6.806;2023-01-25T09:27:16;65134.34;;;-2.66;100.00
46614;BME280;32338;50.430;6.806;2023-01-25T09:29:42;65130.53;;;-2.62;100.00
46614;BME280;32338;50.430;6.806;2023-01-25T09:32:09;65122.66;;;-2.77;100.00
46614;BME280;32338;50.430;6.806;2023-01-25T09:34:35;65100.97;;;-2.97;100.00
46614;BME280;32338;50.430;6.806;2023-01-25T09:37:03;65082.25;;;-3.12;100.00
46614;BME280;32338;50.430;6.806;2023-01-25T09:39:30;65114.50;;;-2.82;100.00
46614;BME280;32338;50.430;6.806;2023-01-25T09:42:07;65126.22;;;-2.71;100.00
46614;BME280;32338;50.430;6.806;2023-01-25T09:44:46;65138.44;;;-2.59;100.00
46614;BME280;32338;50.430;6.806;2023-01-25T09:47:22;65131.00;;;-2.69;100.00
46614;BME280;32338;50.430;6.806;2023-01-25T09:50:03;65137.91;;;-2.60;100.00
46614;BME280;32338;50.430;6.806;2023-01-25T09:52:59;65169.97;;;-2.33;100.00
46614;BME280;32338;50.430;6.806;2023-01-25T09:55:32;65169.63;;;-2.31;100.00
46614;BME280;32338;50.430;6.806;2023-01-25T09:58:01;65137.34;;;-2.61;100.00
46614;BME280;32338;50.430;6.806;2023-01-25T10:00:31;65114.50;;;-2.82;100.00
46614;BME280;32338;50.430;6.806;2023-01-25T10:03:01;65090.94;;;-3.06;100.00
46614;BME280;32338;50.430;6.806;2023-01-25T10:05:35;65072.25;;;-3.21;100.00
46614;BME280;32338;50.430;6.806;2023-01-25T10:08:14;65068.34;;;-3.24;100.00
46614;BME280;32338;50.430;6.806;2023-01-25T10:10:45;65066.69;;;-3.26;100.00
46614;BME280;32338;50.430;6.806;2023-01-25T10:13:18;65084.03;;;-3.15;100.00
46614;BME280;32338;50.430;6.806;2023-01-25T10:15:49;65107.84;;;-2.88;100.00
46614;BME280;32338;50.430;6.806;2023-01-25T10:18:21;65117.06;;;-2.82;100.00
46614;BME280;32338;50.430;6.806;2023-01-25T10:20:56;65118.41;;;-2.78;100.00
46614;BME280;32338;50.430;6.806;2023-01-25T10:23:55;65135.66;;;-2.62;100.00
46614;BME280;32338;50.430;6.806;2023-01-25T10:26:28;65134.91;;;-2.65;100.00
46614;BME280;32338;50.430;6.806;2023-01-25T10:29:02;65154.03;;;-2.45;100.00
46614;BME280;32338;50.430;6.806;2023-01-25T10:31:36;65168.06;;;-2.37;100.00
46614;BME280;32338;50.430;6.806;2023-01-25T10:34:14;65190.78;;;-2.11;100.00
46614;BME280;32338;50.430;6.806;2023-01-25T10:36:43;65212.63;;;-1.96;100.00
46614;BME280;32338;50.430;6.806;2023-01-25T10:39:13;65213.19;;;-1.95;100.00
46614;BME280;32338;50.430;6.806;2023-01-25T10:41:42;65183.34;;;-2.20;100.00
46614;BME280;32338;50.430;6.806;2023-01-25T10:44:10;65197.03;;;-2.10;100.00
46614;BME280;32338;50.430;6.806;2023-01-25T10:46:56;65210.63;;;-1.95;100.00
46614;BME280;32338;50.430;6.806;2023-01-25T10:49:28;65209.72;;;-1.93;100.00
46614;BME280;32338;50.430;6.806;2023-01-25T10:52:12;65220.84;;;-1.83;100.00
46614;BME280;32338;50.430;6.806;2023-01-25T10:54:40;65209.50;;;-1.96;100.00
46614;BME280;32338;50.430;6.806;2023-01-25T10:57:10;65212.06;;;-1.96;100.00
46614;BME280;32338;50.430;6.806;2023-01-25T10:59:43;65204.28;;;-2.03;100.00
46614;BME280;32338;50.430;6.806;2023-01-25T11:02:35;65214.84;;;-1.93;100.00
46614;BME280;32338;50.430;6.806;2023-01-25T11:05:23;65217.84;;;-1.88;100.00
46614;BME280;32338;50.430;6.806;2023-01-25T11:07:50;65207.47;;;-1.96;100.00
46614;BME280;32338;50.430;6.806;2023-01-25T11:10:28;65213.06;;;-1.90;100.00
46614;BME280;32338;50.430;6.806;2023-01-25T11:13:21;65215.28;;;-1.88;100.00
46614;BME280;32338;50.430;6.806;2023-01-25T11:15:50;65230.91;;;-1.74;100.00
46614;BME280;32338;50.430;6.806;2023-01-25T11:18:19;65232.91;;;-1.74;100.00
46614;BME280;32338;50.430;6.806;2023-01-25T11:20:47;65211.50;;;-1.97;100.00
46614;BME280;32338;50.430;6.806;2023-01-25T11:23:21;65232.13;;;-1.77;100.00
46614;BME280;32338;50.430;6.806;2023-01-25T11:25:50;65229.00;;;-1.78;100.00
46614;BME280;32338;50.430;6.806;2023-01-25T11:28:19;65194.13;;;-2.08;100.00
46614;BME280;32338;50.430;6.806;2023-01-25T11:30:48;65177.22;;;-2.26;100.00
46614;BME280;32338;50.430;6.806;2023-01-25T11:33:17;65196.91;;;-2.05;100.00
46614;BME280;32338;50.430;6.806;2023-01-25T11:36:05;65198.16;;;-2.09;100.00
46614;BME280;32338;50.430;6.806;2023-01-25T11:38:34;65209.28;;;-1.99;100.00
46614;BME280;32338;50.430;6.806;2023-01-25T11:41:10;65176.19;;;-2.20;100.00
46614;BME280;32338;50.430;6.806;2023-01-25T11:43:53;65173.63;;;-2.32;100.00
46614;BME280;32338;50.430;6.806;2023-01-25T11:46:34;65172.97;;;-2.28;100.00
46614;BME280;32338;50.430;6.806;2023-01-25T11:49:12;65185.78;;;-2.16;100.00
46614;BME280;32338;50.430;6.806;2023-01-25T11:51:47;65180.78;;;-2.20;100.00
46614;BME280;32338;50.430;6.806;2023-01-25T11:54:39;65224.13;;;-1.87;100.00
46614;BME280;32338;50.430;6.806;2023-01-25T11:57:25;65217.84;;;-1.88;100.00
46614;BME280;32338;50.430;6.806;2023-01-25T12:00:09;65215.06;;;-1.91;100.00
46614;BME280;32338;50.430;6.806;2023-01-25T12:03:01;65178.53;;;-2.22;100.00
46614;BME280;32338;50.430;6.806;2023-01-25T12:05:49;65150.69;;;-2.48;100.00
46614;BME280;32338;50.430;6.806;2023-01-25T12:08:34;65172.06;;;-2.26;100.00
46614;BME280;32338;50.430;6.806;2023-01-25T12:11:12;65195.72;;;-2.14;100.00
46614;BME280;32338;50.430;6.806;2023-01-25T12:13:46;65176.66;;;-2.26;100.00
46614;BME280;32338;50.430;6.806;2023-01-25T12:16:40;65175.66;;;-2.32;100.00
46614;BME280;32338;50.430;6.806;2023-01-25T12:19:23;65159.59;;;-2.40;100.00
46614;BME280;32338;50.430;6.806;2023-01-25T12:22:07;65173.09;;;-2.32;100.00
46614;BME280;32338;50.430;6.806;2023-01-25T12:24:44;65181.09;;;-2.22;100.00
46614;BME280;32338;50.430;6.806;2023-01-25T12:27:27;65194.25;;;-2.13;100.00
46614;BME280;32338;50.430;6.806;2023-01-25T12:30:02;65207.06;;;-2.01;100.00
46614;BME280;32338;50.430;6.806;2023-01-25T12:32:38;65225.44;;;-1.84;100.00
46614;BME280;32338;50.430;6.806;2023-01-25T12:35:22;65238.34;;;-1.65;100.00
46614;BME280;32338;50.430;6.806;2023-01-25T12:37:55;65251.50;;;-1.55;100.00
46614;BME280;32338;50.430;6.806;2023-01-25T12:40:39;65260.97;;;-1.46;100.00
46614;BME280;32338;50.430;6.806;2023-01-25T12:43:11;65257.84;;;-1.47;100.00
46614;BME280;32338;50.430;6.806;2023-01-25T12:45:44;65259.31;;;-1.48;100.00
46614;BME280;32338;50.430;6.806;2023-01-25T12:48:15;65248.84;;;-1.62;100.00
46614;BME280;32338;50.430;6.806;2023-01-25T12:50:47;65259.31;;;-1.48;100.00
46614;BME280;32338;50.430;6.806;2023-01-25T12:53:19;65267.22;;;-1.45;100.00
46614;BME280;32338;50.430;6.806;2023-01-25T12:55:46;65266.00;;;-1.41;100.00
46614;BME280;32338;50.430;6.806;2023-01-25T12:58:18;65254.63;;;-1.54;100.00
46614;BME280;32338;50.430;6.806;2023-01-25T13:00:54;65200.81;;;-2.02;100.00
46614;BME280;32338;50.430;6.806;2023-01-25T13:03:27;65160.50;;;-2.41;100.00